Terminal Aerodrome Forecast
Issued by NWS

Current Version | Previous Version | Graphics & Text | Print | Product List | Glossary On
Versions: 1 2 3 4 5 6 7 8 9 10 11 12 13 14 15 16 17 18 19 20 21 22 23
000
FTUS41 KRLX 221134
TAFCKB
TAF
KCKB 221134Z 2212/2312 02008KT P6SM -SHRA OVC040
     FM221500 02006KT 6SM -SHRA OVC030
     FM221800 02009KT 6SM SHRA OVC015
      TEMPO 2219/2221 3SM +SHRA OVC010
     FM222300 03005KT P6SM OVC025
     FM230200 04005KT P6SM OVC035=

USA.gov is the U.S. government's official web portal to all federal, state and local government web resources and services.